Molalla, OR

1:55 PM PDT on October 24, 2014 (GMT -0700)
Russellville Hill- | Change Station
CLOSE
Current Station
Personal Weather Station
Location: Molalla, OR
Elevation: 1500 ft
Nearby Weather Stations
Active Advisory: Special Statement

Elev 1500 ft 45.06 °N, 122.53 °W | Updated 4 minutes ago

Rain
Rain
53.1 °F
Feels Like 53.1 °F
N
0.0
Wind Variable Wind from East
Gusts 1.0 mph

Today
High -- | Low -- °F
--% Chance of Precip.
Yesterday
High -- | Low -- °F
Precip. -- in
7:37 AM 6:09 PM
New Moon, 1% visible
Pressure 29.93 in
Visibility 10.0 miles
Clouds Overcast 8500 ft
Dew Point 49 °F
Humidity 86%
Rainfall 0.02 in
Snow Depth Not available.
UV 1 out of 12
Pollen .30 out of 12
Air Quality Not available.
Flu Activity Sporadic
METAR KUAO 241953Z AUTO 36006KT 10SM OVC085 12/10 A2993 RMK AO2 SLP134 T01220100

More Conditions Fewer Conditions

Pressure 29.93 in
Visibility 10.0 miles
Clouds Overcast 8500 ft
Dew Point 49 °F
Humidity 86%
Rainfall 0.02 in
Snow Depth Not available.
UV 1 out of 12
Pollen .30 out of 12
Air Quality Not available.
Flu Activity Sporadic
METAR KUAO 241953Z AUTO 36006KT 10SM OVC085 12/10 A2993 RMK AO2 SLP134 T01220100

More Conditions Fewer Conditions

10-Day Weather Forecast

Almanac

Astronomy

Oct. 24, 2014 Rise Set
Actual Time 7:37 AM PDT 6:09 PM PDT
Civil Twilight 7:07 AM PDT 6:39 PM PDT
Nautical Twilight 6:33 AM PDT 7:14 PM PDT
Astronomical Twilight 5:59 AM PDT 7:48 PM PDT
Moon 8:23 AM PDT 6:51 PM PDT
Length of Visible Light 11h 32m
Length of Day
10h 31m
Tomorrow will be 2m 55s shorter.
New Moon, 1% of the Moon is Illuminated
Today
New Moon
Oct 30
First Quarter
Nov 6
Full
Nov 14
Last Quarter
Nov 22
New

Today's Extremes

State Highs State Lows

Community

WunderPhotos

Upload Photos

1,764,654 photos uploaded!

Nearby

Snow Depth

Station Depth Elevation
Peavine Ridge 0 in 3500 ft
Clackamas Lake 0 in 3400 ft
Clear Lake 1 in 3500 ft
Daly Lake 0 in 3600 ft
Mud Ridge 0 in 3800 ft

Earthquake Activity

City Distance Mag. Time & Date
No recent earthquake activity has been reported nearby.
Minimum magnitude displayed is 2.5.

Coastal Water Temperatures

Place Temperature
No Stations Reporting

Nearby Weather Stations